Hlavní strana
METAR-TAF:

METAR-TAF

Letiště :

Julian Carroll Airport

Jackson, Kentucky, Spojené státy americké

zeměpisná šířka: 37-35-29N, zeměpisná délka: 083-18-52W, výška: 421 m

Aktuální stav počasí

Zpráva byla vytvořena před 26 minutami, v 23:53 UTC
Západní vítr 5 kt
Teplota 12°C
Vlhkost vzduchu 58%
Tlak 1013 hPa
Viditelnost: 16.1 km
Oblačno až skoro zataženo ve výšce 7000 ft

METAR: KJKL 202353Z AUTO 26005KT 10SM BKN070 12/04 A2992 RMK AO2 SLP129 T01220044 10167 20117 53014

Čas: 20:19 (00:19 UTC)

Předpověď počasí

Zpráva byla vytvořena před 55 minutami, v 23:24 UTC
Předpověď platná od 21 v 00 UTC do 21 v 24 UTC
Západoseverozápadní vítr 12 kt s nárazy do 19 kt
Viditelnost: 10 km
Polojasno ve výšce 6000 ft
Od 21 v 0400 UTC
Severoseverozápadní vítr 6 kt
Viditelnost: 10 km
Jasno

TAF: KJKL 202324Z 2100/2124 30012G19KT P6SM SCT060 FM210400 33006KT P6SM SKC

Stav a předpovědi počasí z více než 4 000 letišť (zprávy METAR a TAF).

Červené a žluté tečky na mapě představují dostupné meteorologické stanice.

Když kurzor umístíte na tečku, zobrazí se název stanice.

Pak kliknutím zobrazíte stav a předpověď počasí.

Chcete-li změnit mapu, kliknutím na zelené tlačítko se znaménkem +mapu přiblížíte, kliknutím na zelené tlačítko se znaménkem – mapu oddálíte a kliknutím na zelené šipky přejdete na sousední mapy.


METAR-TAF: